createdAt,value
2023-02-20T05:00:44.662Z,101299.75
2023-02-20T05:03:47.980Z,101299.75
2023-02-20T05:06:53.502Z,101284.25
2023-02-20T05:09:56.479Z,101288.56
2023-02-20T05:12:59.291Z,101296.28
2023-02-20T05:16:02.004Z,101299.72
2023-02-20T05:19:04.936Z,101304.03
2023-02-20T05:22:21.630Z,101306.62
2023-02-20T05:25:24.077Z,101320.44
2023-02-20T05:28:26.777Z,101309.19
2023-02-20T05:31:29.364Z,101316.09
2023-02-20T05:34:32.086Z,101316.06
2023-02-20T05:37:34.478Z,101319.50
2023-02-20T05:40:38.639Z,101315.22
2023-02-20T05:43:41.558Z,101322.13
2023-02-20T05:46:44.470Z,101321.25
2023-02-20T05:49:48.185Z,101317.81
2023-02-20T05:52:50.964Z,101322.09
2023-02-20T05:55:53.364Z,101323.78
2023-02-20T05:58:56.250Z,101336.75
2023-02-20T06:02:00.148Z,101335.88
2023-02-20T06:05:05.653Z,101331.53
2023-02-20T06:08:08.527Z,101341.06
2023-02-20T06:11:12.744Z,101339.31
2023-02-20T06:14:15.817Z,101340.12
2023-02-20T06:17:18.702Z,101353.94
2023-02-20T06:20:21.845Z,101355.59
2023-02-20T06:23:24.547Z,101360.75
2023-02-20T06:26:26.996Z,101359.94
2023-02-20T06:29:29.840Z,101350.38
2023-02-20T06:32:32.307Z,101350.38
2023-02-20T06:35:35.130Z,101352.94
2023-02-20T06:38:38.426Z,101347.69
2023-02-20T06:41:41.193Z,101352.78
2023-02-20T06:44:43.604Z,101361.44
2023-02-20T06:47:46.318Z,101355.37
2023-02-20T06:50:55.251Z,101358.72
2023-02-20T06:53:59.483Z,101363.09
2023-02-20T06:57:02.407Z,101359.63
2023-02-20T07:00:06.079Z,101350.94
2023-02-20T07:03:08.675Z,101353.53
2023-02-20T07:06:11.950Z,101364.78
2023-02-20T07:09:16.938Z,101363.91
2023-02-20T07:12:20.157Z,101367.41
2023-02-20T07:15:22.766Z,101358.72
2023-02-20T07:18:27.397Z,101354.41
2023-02-20T07:21:29.965Z,101363.91
2023-02-20T07:24:32.918Z,101356.06
2023-02-20T07:27:36.889Z,101350.00
2023-02-20T07:30:39.845Z,101350.84
2023-02-20T07:33:43.620Z,101345.41
2023-02-20T07:36:46.847Z,101344.44
2023-02-20T07:39:49.306Z,101344.25
2023-02-20T07:42:52.182Z,101354.34
2023-02-20T07:45:55.943Z,101345.59
2023-02-20T07:48:58.782Z,101352.44
2023-02-20T07:52:01.200Z,101353.38
2023-02-20T07:55:04.046Z,101352.50
2023-02-20T07:58:06.518Z,101353.22
2023-02-20T08:01:09.453Z,101354.97
2023-02-20T08:04:12.414Z,101337.50
2023-02-20T08:07:14.900Z,101332.88
2023-02-20T08:10:22.163Z,101340.50
2023-02-20T08:13:24.609Z,101347.44
2023-02-20T08:16:27.725Z,101348.41
2023-02-20T08:19:30.277Z,101350.62
2023-02-20T08:22:41.261Z,101354.09
2023-02-20T08:25:44.637Z,101345.13
2023-02-20T08:28:48.680Z,101343.28
2023-02-20T08:31:51.404Z,101337.91
2023-02-20T08:34:54.164Z,101336.03
2023-02-20T08:37:56.563Z,101327.16
2023-02-20T08:41:00.047Z,101319.75
2023-02-20T08:44:02.543Z,101320.63
2023-02-20T08:47:05.266Z,101328.16
2023-02-20T08:50:08.270Z,101327.25
2023-02-20T08:53:11.381Z,101327.09
2023-02-20T08:56:18.970Z,101342.69
2023-02-20T08:59:21.864Z,101322.50
2023-02-20T09:02:27.079Z,101314.78
2023-02-20T09:05:34.677Z,101314.09
2023-02-20T09:08:38.590Z,101312.41
2023-02-20T09:11:41.625Z,101314.06
2023-02-20T09:14:44.318Z,101314.81
2023-02-20T09:17:51.586Z,101298.78
2023-02-20T09:20:54.432Z,101308.06
2023-02-20T09:23:57.377Z,101308.53
2023-02-20T09:27:01.640Z,101308.94
2023-02-20T09:30:07.622Z,101304.19
2023-02-20T09:33:11.258Z,101300.97
2023-02-20T09:36:14.474Z,101292.13
2023-02-20T09:39:17.999Z,101301.75
2023-02-20T09:43:06.221Z,101296.22
2023-02-20T09:46:14.947Z,101298.84
2023-02-20T09:49:25.880Z,101294.31
2023-02-20T09:52:33.245Z,101289.41
2023-02-20T09:55:40.799Z,101296.03
2023-02-20T09:58:49.937Z,101295.31
2023-02-20T10:02:12.732Z,101287.03
2023-02-20T10:05:25.482Z,101275.69
2023-02-20T10:08:28.137Z,101249.19
2023-02-20T10:11:47.459Z,101251.25
2023-02-20T10:15:09.237Z,101241.69
2023-02-20T10:18:24.585Z,101241.94
2023-02-20T10:21:45.016Z,101236.41
2023-02-20T10:24:56.111Z,101242.41
2023-02-20T10:28:16.168Z,101231.62
2023-02-20T10:31:34.492Z,101225.62
2023-02-20T10:34:44.866Z,101228.00
2023-02-20T10:37:55.353Z,101214.19
2023-02-20T10:41:12.976Z,101219.00
2023-02-20T10:44:27.586Z,101213.28
2023-02-20T10:48:08.112Z,101202.34
2023-02-20T10:51:18.726Z,101197.13
2023-02-20T10:54:37.480Z,101180.09
2023-02-20T10:57:47.082Z,101190.13
2023-02-20T11:00:58.961Z,101178.03
2023-02-20T11:04:17.770Z,101168.94
2023-02-20T11:07:22.497Z,101168.03
2023-02-20T11:10:25.424Z,101161.19
2023-02-20T11:13:27.924Z,101152.69
2023-02-20T11:16:40.492Z,101152.16
2023-02-20T11:19:51.684Z,101137.28
2023-02-20T11:22:54.535Z,101128.41
2023-02-20T11:26:32.864Z,101122.28
2023-02-20T11:29:41.035Z,101114.34
2023-02-20T11:32:43.606Z,101119.81
2023-02-20T11:35:49.934Z,101104.25
2023-02-20T11:39:07.231Z,101097.28
2023-02-20T11:42:17.505Z,101100.31
2023-02-20T11:45:26.576Z,101106.91
2023-02-20T11:48:30.002Z,101092.28
2023-02-20T11:51:33.717Z,101086.34
2023-02-20T11:54:37.056Z,101079.28
2023-02-20T11:57:44.983Z,101073.87
2023-02-20T12:00:49.581Z,101057.19
2023-02-20T12:03:57.146Z,101054.56
2023-02-20T12:06:59.806Z,101038.53
2023-02-20T12:10:15.423Z,101026.87
2023-02-20T12:13:20.327Z,101008.44
2023-02-20T12:16:46.278Z,100999.63
2023-02-20T12:20:16.228Z,100992.59
2023-02-20T12:23:35.266Z,100985.91
2023-02-20T12:26:44.478Z,100988.53
2023-02-20T12:30:01.239Z,100985.28
2023-02-20T12:33:44.034Z,100984.66
2023-02-20T12:36:54.184Z,100974.22
2023-02-20T12:40:20.983Z,100978.72
2023-02-20T12:43:50.733Z,100970.94
2023-02-20T12:47:11.628Z,100983.53
2023-02-20T12:50:34.711Z,100980.19
2023-02-20T12:53:59.274Z,100965.56
2023-02-20T12:57:03.077Z,100965.28
2023-02-20T13:00:28.957Z,100971.69
2023-02-20T13:03:44.101Z,100967.06
2023-02-20T13:06:51.219Z,100974.31
2023-02-20T13:09:59.720Z,100964.62
2023-02-20T13:13:02.603Z,100963.91
2023-02-20T13:16:12.737Z,100967.94
2023-02-20T13:19:37.611Z,100974.00
2023-02-20T13:22:40.608Z,100973.69
2023-02-20T13:25:53.898Z,100963.00
2023-02-20T13:29:10.723Z,100952.41
2023-02-20T13:32:19.510Z,100954.56
2023-02-20T13:35:41.167Z,100937.81
2023-02-20T13:39:19.579Z,100929.38
2023-02-20T13:42:32.001Z,100938.37
2023-02-20T13:46:00.641Z,100939.91
2023-02-20T13:49:05.885Z,100926.84
2023-02-20T13:52:32.238Z,100941.81
2023-02-20T13:55:35.153Z,100939.03
2023-02-20T13:58:37.796Z,100923.69
2023-02-20T14:02:29.394Z,100907.53
2023-02-20T14:05:32.772Z,100886.09
2023-02-20T14:08:37.488Z,100877.87
2023-02-20T14:11:40.604Z,100872.91
2023-02-20T14:14:45.901Z,100874.44
2023-02-20T14:17:49.872Z,100874.37
2023-02-20T14:21:10.229Z,100888.28
2023-02-20T14:24:26.095Z,100890.91
2023-02-20T14:27:32.172Z,100895.06
2023-02-20T14:30:35.158Z,100879.66
2023-02-20T14:33:37.775Z,100873.38
2023-02-20T14:37:08.761Z,100861.13
2023-02-20T14:40:32.910Z,100856.84
2023-02-20T14:43:35.726Z,100847.22
2023-02-20T14:46:38.376Z,100841.16
2023-02-20T14:49:41.784Z,100849.69
2023-02-20T14:52:44.394Z,100846.87
2023-02-20T14:55:50.096Z,100841.63
2023-02-20T14:58:52.915Z,100857.37
2023-02-20T15:01:59.368Z,100848.69
2023-02-20T15:05:03.949Z,100847.34
2023-02-20T15:08:15.538Z,100847.06
2023-02-20T15:11:18.024Z,100837.09
2023-02-20T15:14:26.982Z,100844.47
2023-02-20T15:17:32.407Z,100837.37
2023-02-20T15:20:39.877Z,100826.31
2023-02-20T15:23:44.689Z,100821.72
2023-02-20T15:26:47.463Z,100828.19
2023-02-20T15:30:16.283Z,100815.59
2023-02-20T15:33:19.542Z,100821.94
2023-02-20T15:36:25.213Z,100816.41
2023-02-20T15:39:28.219Z,100811.62
2023-02-20T15:42:30.591Z,100805.41
2023-02-20T15:45:34.138Z,100805.12
2023-02-20T15:48:36.509Z,100804.69
2023-02-20T15:51:41.586Z,100795.81
2023-02-20T15:54:51.449Z,100793.13
2023-02-20T15:57:56.786Z,100787.53
2023-02-20T16:01:00.337Z,100776.19
2023-02-20T16:04:02.942Z,100772.13
2023-02-20T16:07:05.418Z,100768.72
2023-02-20T16:10:09.465Z,100758.63
2023-02-20T16:13:33.507Z,100747.12
2023-02-20T16:16:38.172Z,100741.87
2023-02-20T16:19:42.959Z,100742.44
2023-02-20T16:22:46.241Z,100742.44
2023-02-20T16:25:50.328Z,100735.81
2023-02-20T16:29:00.173Z,100727.25
2023-02-20T16:32:03.047Z,100722.56
2023-02-20T16:35:06.280Z,100718.37
2023-02-20T16:38:09.137Z,100719.94
2023-02-20T16:41:12.380Z,100716.88
2023-02-20T16:44:23.917Z,100720.72
2023-02-20T16:47:29.105Z,100716.00
2023-02-20T16:50:32.157Z,100718.09
2023-02-20T16:53:38.148Z,100718.00
